Aviation Digital Data Service (ADDS)

Output produced by TAFs form (2010 UTC 19 October 2017)
found at http://www.aviationweather.gov/adds/tafs/
 
KBJC 191947Z 06004KT 25SM FEW130 OVC220 23/M06 A2999
KBJC 191720Z 1918/2018 VRB05KT P6SM FEW140 BKN220 
     FM192100 05008KT P6SM FEW140 BKN220 
     FM200200 31006KT P6SM SCT140 BKN220 
     FM200900 25010KT P6SM SCT220